Time;durP1;ratioP1;P1;durP2;ratioP2;P2;SDS_P1;SDS_P2;PMS_P1;PMS_P2;Temp;Humidity;BMP_temperature;BMP_pressure;BME280_temperature;BME280_humidity;BME280_pressure;Samples;Min_cycle;Max_cycle;Signal;HPM_P1;HPM_P2
2021/05/20 16:50:17;;;;;;;0.70;0.50;;;;;;;17.88;48.48;98889.75;4829731;29;103139;-75
2021/05/20 16:52:46;;;;;;;0.47;0.47;;;;;;;18.25;47.69;98880.72;4836306;29;103409;-75
2021/05/20 16:55:17;;;;;;;1.10;0.80;;;;;;;18.08;47.43;98877.09;4838198;29;107737;-77
2021/05/20 16:57:55;;;;;;;1.08;0.60;;;;;;;18.10;47.59;98880.47;4838938;29;103798;-78
2021/05/20 17:00:24;;;;;;;1.73;0.68;;;;;;;17.95;47.85;98880.16;4839137;29;103045;-78
2021/05/20 17:02:52;;;;;;;1.15;0.65;;;;;;;17.78;48.36;98888.16;4839045;29;103184;-77
2021/05/20 17:05:23;;;;;;;0.85;0.60;;;;;;;17.62;48.67;98882.66;4837038;29;103943;-78
2021/05/20 17:07:51;;;;;;;0.50;0.50;;;;;;;17.42;48.93;98894.41;4827205;29;103246;-77
2021/05/20 17:10:19;;;;;;;1.00;0.60;;;;;;;17.38;47.85;98896.53;4834520;29;103080;-78
2021/05/20 17:12:47;;;;;;;0.70;0.63;;;;;;;17.03;47.38;98893.75;4832168;29;103157;-77
2021/05/20 17:15:15;;;;;;;1.42;0.65;;;;;;;17.03;47.65;98886.59;4818038;29;104032;-77
2021/05/20 17:17:43;;;;;;;0.93;0.65;;;;;;;17.00;47.37;98888.72;4829371;29;104353;-76
2021/05/20 17:20:12;;;;;;;0.85;0.70;;;;;;;16.94;47.51;98890.13;4829116;29;103247;-77
2021/05/20 17:22:41;;;;;;;0.60;0.60;;;;;;;17.19;47.92;98891.28;4833012;29;102986;-77
2021/05/20 17:25:11;;;;;;;2.30;0.88;;;;;;;17.39;47.67;98898.22;4828192;29;103891;-76
2021/05/20 17:27:39;;;;;;;0.60;0.50;;;;;;;17.18;48.82;98897.59;4821805;29;103897;-77
2021/05/20 17:30:08;;;;;;;0.70;0.60;;;;;;;17.22;48.97;98888.31;4829584;29;103675;-77
2021/05/20 17:32:36;;;;;;;0.75;0.60;;;;;;;16.92;49.47;98881.44;4823522;29;103257;-77
2021/05/20 17:35:05;;;;;;;0.95;0.50;;;;;;;17.14;48.96;98882.88;4812853;29;106839;-79
2021/05/20 17:37:34;;;;;;;0.77;0.63;;;;;;;17.09;49.37;98879.81;4832823;29;104306;-78
2021/05/20 17:40:03;;;;;;;1.45;0.60;;;;;;;16.75;49.83;98887.53;4825849;29;103077;-78
2021/05/20 17:42:31;;;;;;;1.70;0.70;;;;;;;16.95;49.63;98888.31;4836528;29;102982;-77
2021/05/20 17:44:59;;;;;;;0.75;0.50;;;;;;;17.03;49.59;98885.75;4838006;29;103918;-76
2021/05/20 17:47:27;;;;;;;0.60;0.50;;;;;;;16.80;49.45;98888.78;4828881;29;104779;-75
2021/05/20 17:49:55;;;;;;;1.05;0.60;;;;;;;16.72;50.11;98896.66;4828672;29;104472;-76
2021/05/20 17:52:23;;;;;;;0.65;0.60;;;;;;;16.92;50.28;98897.44;4813446;29;105373;-77
2021/05/20 17:54:51;;;;;;;0.75;0.65;;;;;;;16.99;50.27;98892.34;4832649;29;104576;-75
2021/05/20 17:57:19;;;;;;;0.52;0.50;;;;;;;16.98;50.29;98890.69;4844556;29;103662;-75
2021/05/20 17:59:48;;;;;;;0.60;0.60;;;;;;;16.67;49.86;98888.25;4835316;29;103235;-75
2021/05/20 18:02:15;;;;;;;0.70;0.68;;;;;;;16.75;50.10;98872.38;4829250;29;103388;-76
2021/05/20 18:04:43;;;;;;;1.17;0.68;;;;;;;16.74;49.88;98873.34;4835109;28;104427;-77
2021/05/20 18:07:11;;;;;;;0.93;0.75;;;;;;;16.71;49.95;98876.31;4826986;29;104400;-77
2021/05/20 18:09:41;;;;;;;1.48;0.60;;;;;;;16.60;50.59;98867.63;4819718;28;103717;-75
2021/05/20 18:12:13;;;;;;;1.50;0.77;;;;;;;16.81;50.62;98871.75;4842694;28;103437;-76
2021/05/20 18:14:45;;;;;;;0.70;0.70;;;;;;;16.32;49.79;98869.34;4840739;29;107585;-76
2021/05/20 18:17:18;;;;;;;0.85;0.70;;;;;;;16.51;50.06;98869.31;4836664;29;105030;-76
2021/05/20 18:22:33;;;;;;;0.60;0.50;;;;;;;16.54;49.75;98865.53;4820994;29;103286;-75
2021/05/20 18:25:02;;;;;;;0.55;0.55;;;;;;;16.58;49.06;98865.13;4839425;29;103475;-74
2021/05/20 18:27:29;;;;;;;0.70;0.52;;;;;;;16.44;48.74;98868.22;4836484;29;105463;-76
2021/05/20 18:30:00;;;;;;;1.13;0.63;;;;;;;16.19;48.71;98863.47;4836906;29;102988;-74
2021/05/20 18:32:28;;;;;;;0.77;0.70;;;;;;;16.18;49.42;98867.13;4841980;29;102790;-74
2021/05/20 18:34:56;;;;;;;0.60;0.55;;;;;;;16.12;49.48;98862.34;4837604;29;103380;-75
2021/05/20 18:37:25;;;;;;;0.90;0.70;;;;;;;16.17;48.81;98860.94;4838732;29;103926;-74
2021/05/20 18:39:55;;;;;;;0.60;0.60;;;;;;;15.99;49.27;98861.81;4820929;29;103214;-77
2021/05/20 18:42:27;;;;;;;1.67;0.60;;;;;;;16.10;49.18;98851.00;4829878;29;103242;-74
2021/05/20 18:45:00;;;;;;;0.60;0.60;;;;;;;16.06;49.21;98852.25;4828641;29;104608;-76
2021/05/20 18:47:28;;;;;;;0.68;0.50;;;;;;;16.11;49.08;98861.50;4827743;29;110734;-74
2021/05/20 18:49:56;;;;;;;1.52;0.50;;;;;;;15.92;49.47;98858.00;4838970;29;102727;-76
2021/05/20 18:52:24;;;;;;;1.13;0.70;;;;;;;15.89;49.44;98844.97;4821141;29;103029;-74
2021/05/20 18:54:54;;;;;;;0.50;0.50;;;;;;;15.89;49.63;98843.13;4822735;29;103913;-74
2021/05/20 18:57:22;;;;;;;0.40;0.40;;;;;;;16.00;50.21;98828.84;4838505;29;104277;-71
2021/05/20 18:59:50;;;;;;;1.50;0.77;;;;;;;16.05;49.96;98821.28;4828919;29;103754;-72
2021/05/20 19:02:20;;;;;;;1.02;0.63;;;;;;;15.97;50.03;98821.16;4831329;29;103582;-73
2021/05/20 19:04:49;;;;;;;1.10;0.55;;;;;;;15.87;50.10;98820.28;4826171;29;108920;-71
2021/05/20 19:07:18;;;;;;;1.35;0.70;;;;;;;15.90;50.07;98817.34;4825618;29;104967;-72
2021/05/20 19:09:45;;;;;;;0.68;0.60;;;;;;;15.90;50.02;98810.19;4821956;29;103685;-71
2021/05/20 19:12:15;;;;;;;0.82;0.75;;;;;;;15.75;50.24;98805.47;4834463;29;105336;-71
2021/05/20 19:14:42;;;;;;;2.13;0.60;;;;;;;15.60;50.14;98802.38;4830949;29;103849;-73
2021/05/20 19:17:10;;;;;;;1.00;0.70;;;;;;;15.61;51.11;98806.69;4831226;29;104379;-73
2021/05/20 19:19:39;;;;;;;0.65;0.60;;;;;;;15.68;51.58;98807.84;4846111;29;103168;-72
2021/05/20 19:22:12;;;;;;;0.73;0.60;;;;;;;15.72;52.52;98811.06;4838103;29;102973;-72
2021/05/20 19:24:40;;;;;;;0.65;0.60;;;;;;;15.61;53.30;98810.19;4832869;29;108077;-72
2021/05/20 19:27:08;;;;;;;1.10;0.80;;;;;;;15.46;53.30;98802.75;4831149;29;105596;-75
2021/05/20 19:29:38;;;;;;;1.25;0.90;;;;;;;15.41;53.67;98807.66;4814705;29;103011;-72
2021/05/20 19:32:09;;;;;;;0.77;0.70;;;;;;;15.33;54.11;98799.47;4832407;29;103021;-75
2021/05/20 19:34:37;;;;;;;1.60;0.70;;;;;;;15.27;54.69;98806.19;4831268;29;104332;-72
2021/05/20 19:37:08;;;;;;;1.35;1.15;;;;;;;15.26;55.21;98804.53;4832232;29;105312;-72
2021/05/20 19:39:37;;;;;;;0.80;0.80;;;;;;;15.13;56.08;98803.13;4844186;29;103562;-72
2021/05/20 19:42:05;;;;;;;1.63;0.77;;;;;;;15.09;56.49;98810.53;4843775;29;103479;-72
2021/05/20 19:44:32;;;;;;;1.30;0.80;;;;;;;14.85;56.87;98804.72;4834929;29;103858;-71
2021/05/20 19:47:00;;;;;;;0.83;0.70;;;;;;;14.90;57.20;98811.31;4848868;29;103126;-72
2021/05/20 19:49:33;;;;;;;0.83;0.60;;;;;;;14.91;57.11;98812.97;4849156;29;103158;-72
2021/05/20 19:52:02;;;;;;;0.90;0.60;;;;;;;14.81;57.85;98809.47;4843611;29;102887;-73
2021/05/20 19:54:37;;;;;;;1.20;0.80;;;;;;;14.80;57.82;98806.91;4838419;29;104044;-71
2021/05/20 20:02:42;;;;;;;1.00;0.90;;;;;;;14.78;58.06;98787.59;4812749;29;102930;-72
2021/05/20 20:05:14;;;;;;;1.77;1.10;;;;;;;14.63;58.19;98786.28;4820580;29;103492;-74
2021/05/20 20:07:52;;;;;;;0.83;0.83;;;;;;;14.61;58.27;98786.44;4848675;29;106244;-73
2021/05/20 20:10:21;;;;;;;0.90;0.90;;;;;;;14.59;58.39;98782.22;4835929;29;102904;-72
2021/05/20 20:12:49;;;;;;;0.97;0.87;;;;;;;14.46;58.63;98764.66;4830213;29;102866;-72
2021/05/20 20:15:17;;;;;;;0.80;0.80;;;;;;;14.54;58.60;98768.50;4839466;29;104082;-74
2021/05/20 20:17:45;;;;;;;1.30;1.20;;;;;;;14.57;58.84;98766.38;4844548;29;103729;-75
2021/05/20 20:20:23;;;;;;;0.77;0.73;;;;;;;14.55;59.07;98770.16;4849117;29;102594;-74
2021/05/20 20:22:52;;;;;;;1.37;0.83;;;;;;;14.61;59.56;98772.28;4849531;29;102918;-72
2021/05/20 20:25:22;;;;;;;1.13;0.93;;;;;;;14.63;59.50;98770.31;4848834;29;105228;-72
2021/05/20 20:27:54;;;;;;;1.10;1.00;;;;;;;14.43;61.36;98762.28;4839173;29;103752;-72
2021/05/20 20:30:26;;;;;;;1.30;1.20;;;;;;;14.42;61.09;98757.97;4850092;29;102629;-72
2021/05/20 20:32:57;;;;;;;1.03;0.93;;;;;;;14.49;60.17;98760.91;4849947;29;102933;-72
2021/05/20 20:41:12;;;;;;;0.83;0.70;;;;;;;14.53;60.23;98733.09;4833003;29;103259;-72
2021/05/20 20:43:42;;;;;;;1.00;0.80;;;;;;;14.48;60.69;98730.00;4830521;29;102755;-74
2021/05/20 20:46:10;;;;;;;1.43;0.83;;;;;;;14.49;60.83;98726.34;4831487;29;104431;-73
2021/05/20 20:48:40;;;;;;;1.17;0.90;;;;;;;14.52;60.84;98724.25;4814971;29;104989;-73
2021/05/20 20:51:08;;;;;;;2.00;0.73;;;;;;;14.57;59.53;98734.47;4849187;29;103068;-72
2021/05/20 20:53:37;;;;;;;2.50;1.13;;;;;;;14.49;58.95;98729.84;4832217;28;103154;-74
2021/05/20 20:56:06;;;;;;;1.23;1.13;;;;;;;14.45;59.52;98723.13;4830402;29;103381;-72
2021/05/20 20:58:35;;;;;;;3.67;1.83;;;;;;;14.30;60.26;98713.81;4839239;29;103700;-72
2021/05/20 21:01:05;;;;;;;1.97;1.50;;;;;;;14.32;60.04;98709.22;4848196;29;102898;-73
2021/05/20 21:03:35;;;;;;;1.23;1.13;;;;;;;14.27;61.24;98714.06;4847805;29;102856;-72
2021/05/20 21:06:03;;;;;;;1.17;1.07;;;;;;;14.31;61.22;98707.53;4847673;29;104832;-72
2021/05/20 21:08:31;;;;;;;2.13;1.37;;;;;;;14.26;62.39;98704.41;4849320;29;103858;-73
2021/05/20 21:10:59;;;;;;;1.70;1.30;;;;;;;14.22;63.02;98720.75;4846069;29;103111;-73
2021/05/20 21:13:26;;;;;;;2.73;1.40;;;;;;;14.17;63.24;98709.69;4848270;29;104474;-73
2021/05/20 21:15:55;;;;;;;1.87;1.40;;;;;;;14.16;64.12;98708.84;4838099;29;105461;-73
2021/05/20 21:18:23;;;;;;;1.40;1.27;;;;;;;14.13;63.71;98705.59;4828117;29;104817;-72
2021/05/20 21:20:51;;;;;;;2.50;1.50;;;;;;;14.11;63.58;98707.56;4834119;29;103042;-72
2021/05/20 21:23:19;;;;;;;2.27;1.67;;;;;;;14.07;64.25;98706.97;4840920;29;102991;-73
2021/05/20 21:25:47;;;;;;;1.73;1.40;;;;;;;13.86;64.80;98698.22;4839673;29;103908;-72
2021/05/20 21:28:15;;;;;;;1.30;1.20;;;;;;;13.89;65.00;98689.97;4849671;29;103295;-73
2021/05/20 21:30:43;;;;;;;2.77;1.63;;;;;;;13.76;65.96;98697.28;4852383;29;102854;-72
2021/05/20 21:33:11;;;;;;;2.20;1.73;;;;;;;13.76;65.94;98698.13;4844436;29;103303;-73
2021/05/20 21:35:39;;;;;;;2.40;1.83;;;;;;;13.74;66.05;98693.94;4833354;29;103880;-72
2021/05/20 21:38:07;;;;;;;1.77;1.60;;;;;;;13.70;66.34;98692.50;4833882;29;103169;-72
2021/05/20 21:40:34;;;;;;;2.33;1.40;;;;;;;13.75;65.99;98687.66;4833388;29;102578;-72
2021/05/20 21:43:02;;;;;;;1.37;1.27;;;;;;;13.75;66.19;98677.03;4833069;29;103072;-72
2021/05/20 21:45:31;;;;;;;2.97;1.40;;;;;;;13.66;66.12;98680.47;4831677;29;106898;-72
2021/05/20 21:47:59;;;;;;;1.50;1.40;;;;;;;13.62;66.47;98676.38;4850696;29;105154;-74
2021/05/20 21:50:28;;;;;;;1.20;1.10;;;;;;;13.62;65.87;98679.03;4848873;29;103024;-72
2021/05/20 21:52:57;;;;;;;1.77;1.43;;;;;;;13.67;65.61;98682.16;4842570;29;102950;-73
2021/05/20 21:55:25;;;;;;;2.27;1.40;;;;;;;13.64;66.28;98672.63;4816706;29;104289;-72
2021/05/20 21:57:53;;;;;;;2.60;1.40;;;;;;;13.47;67.07;98681.19;4832769;29;103785;-72
2021/05/20 22:00:23;;;;;;;1.77;1.50;;;;;;;13.29;67.38;98678.28;4835232;29;103286;-72
2021/05/20 22:02:51;;;;;;;1.60;1.50;;;;;;;13.28;67.63;98676.59;4833491;29;103378;-72
2021/05/20 22:05:19;;;;;;;1.60;1.50;;;;;;;13.25;67.69;98673.34;4837960;29;105405;-72
2021/05/20 22:07:47;;;;;;;2.70;1.70;;;;;;;13.17;67.62;98673.97;4852095;29;103174;-72
2021/05/20 22:10:19;;;;;;;2.00;1.80;;;;;;;12.91;69.05;98667.31;4848550;29;103073;-73
2021/05/20 22:13:00;;;;;;;3.17;1.70;;;;;;;12.74;70.23;98679.28;4851290;29;102723;-72
2021/05/20 22:15:28;;;;;;;2.07;1.80;;;;;;;12.91;69.76;98669.97;4848808;29;104881;-73
2021/05/20 22:17:59;;;;;;;2.90;2.10;;;;;;;12.84;70.41;98666.13;4835924;29;104005;-72
2021/05/20 22:20:26;;;;;;;1.67;1.27;;;;;;;12.93;69.54;98673.34;4832941;29;102822;-72
2021/05/20 22:22:54;;;;;;;1.20;1.10;;;;;;;13.09;68.55;98660.53;4815210;29;102839;-72
2021/05/20 22:25:26;;;;;;;2.23;1.57;;;;;;;13.03;69.68;98630.97;4851389;29;104211;-72
2021/05/20 22:27:54;;;;;;;3.40;2.00;;;;;;;12.75;71.13;98645.66;4830664;29;103213;-73
2021/05/20 22:30:24;;;;;;;2.73;1.67;;;;;;;12.70;71.13;98659.31;4833772;29;102982;-71
2021/05/20 22:32:51;;;;;;;3.33;1.93;;;;;;;12.68;71.54;98650.66;4852075;29;103006;-72
2021/05/20 22:35:21;;;;;;;2.30;1.70;;;;;;;12.60;71.93;98646.94;4839328;29;103474;-72
2021/05/20 22:37:49;;;;;;;2.33;1.50;;;;;;;12.70;71.22;98648.72;4850496;29;103358;-73
2021/05/20 22:40:24;;;;;;;3.33;1.50;;;;;;;12.75;71.54;98650.97;4838224;29;103068;-73
2021/05/20 22:42:52;;;;;;;2.50;1.63;;;;;;;12.80;71.16;98648.78;4832070;29;102739;-73
2021/05/20 22:45:19;;;;;;;2.10;1.33;;;;;;;12.83;70.89;98639.75;4835550;29;105720;-73
2021/05/20 22:47:50;;;;;;;1.80;1.60;;;;;;;12.93;70.39;98643.31;4849033;29;103925;-72
2021/05/20 22:50:19;;;;;;;2.07;1.60;;;;;;;12.95;70.80;98636.91;4833307;29;102696;-73
2021/05/20 22:52:46;;;;;;;1.93;1.63;;;;;;;12.99;70.45;98634.88;4841972;29;103007;-74
2021/05/20 22:55:14;;;;;;;2.17;1.90;;;;;;;13.04;70.54;98630.84;4842086;29;103763;-73
2021/05/20 22:57:43;;;;;;;2.03;1.70;;;;;;;12.99;70.93;98629.56;4851298;29;105260;-73
2021/05/20 23:00:12;;;;;;;2.90;2.00;;;;;;;13.01;70.19;98617.84;4843027;29;103974;-72
2021/05/20 23:02:40;;;;;;;2.47;2.20;;;;;;;13.03;70.58;98612.41;4832175;29;102724;-73
2021/05/20 23:05:08;;;;;;;2.13;1.80;;;;;;;13.02;70.44;98619.53;4835476;29;103373;-73
2021/05/20 23:07:36;;;;;;;3.00;2.03;;;;;;;13.04;70.07;98622.06;4850886;29;103802;-73
2021/05/20 23:10:04;;;;;;;3.63;2.13;;;;;;;13.02;70.23;98616.91;4848291;29;102670;-72
2021/05/20 23:12:32;;;;;;;4.67;1.90;;;;;;;12.98;70.57;98626.06;4849935;29;102712;-73
2021/05/20 23:15:03;;;;;;;3.93;2.47;;;;;;;13.00;70.45;98608.19;4849526;29;103431;-73
2021/05/20 23:17:31;;;;;;;3.47;2.30;;;;;;;12.99;70.74;98601.25;4821707;29;112183;-73
2021/05/20 23:19:58;;;;;;;3.20;2.20;;;;;;;13.00;70.27;98586.13;4832116;29;102983;-73
2021/05/20 23:22:26;;;;;;;3.40;2.50;;;;;;;13.03;70.26;98584.09;4847183;29;103166;-73
2021/05/20 23:24:54;;;;;;;3.07;1.90;;;;;;;13.05;70.36;98574.19;4844067;29;103639;-73
2021/05/20 23:27:22;;;;;;;2.80;2.47;;;;;;;13.02;70.45;98569.16;4841458;29;103869;-72
2021/05/20 23:29:49;;;;;;;3.20;2.37;;;;;;;12.98;70.44;98573.03;4849478;29;103056;-72
2021/05/20 23:32:18;;;;;;;2.47;2.10;;;;;;;12.98;70.40;98573.03;4850380;29;102796;-73
2021/05/20 23:34:46;;;;;;;2.93;2.30;;;;;;;12.98;70.54;98565.06;4844746;29;103325;-73
2021/05/20 23:37:13;;;;;;;2.63;2.30;;;;;;;12.99;70.37;98563.25;4831375;29;110709;-73
2021/05/20 23:39:42;;;;;;;4.40;2.37;;;;;;;12.95;70.69;98562.69;4831590;29;103169;-73
2021/05/20 23:42:11;;;;;;;3.73;2.70;;;;;;;12.90;71.01;98556.91;4837908;29;103082;-73
2021/05/20 23:44:38;;;;;;;3.33;2.30;;;;;;;12.93;70.64;98545.22;4838494;29;104161;-73
2021/05/20 23:47:06;;;;;;;3.73;2.17;;;;;;;12.94;71.49;98545.06;4842036;29;104420;-74
2021/05/20 23:49:35;;;;;;;2.37;2.00;;;;;;;12.93;71.04;98542.56;4849903;29;103149;-73
2021/05/20 23:52:03;;;;;;;4.00;2.23;;;;;;;12.88;71.67;98545.63;4849349;29;102782;-73
2021/05/20 23:54:30;;;;;;;2.60;2.10;;;;;;;12.88;71.26;98540.31;4831269;29;103450;-73
2021/05/20 23:56:58;;;;;;;4.93;2.00;;;;;;;12.86;71.94;98526.31;4830018;29;104327;-74
2021/05/20 23:59:25;;;;;;;2.57;1.90;;;;;;;12.87;71.66;98528.00;4831344;29;102903;-74
